sensor_id;sensor_type;location;lat;lon;timestamp;pressure;altitude;pressure_sealevel;temperature;humidity
36254;BME280;22291;52.250;21.228;2022-09-09T00:04:41;100100.70;;;11.70;72.26
36254;BME280;22291;52.250;21.228;2022-09-09T00:07:31;100102.23;;;11.65;72.24
36254;BME280;22291;52.250;21.228;2022-09-09T00:13:28;100095.22;;;11.55;72.31
36254;BME280;22291;52.250;21.228;2022-09-09T00:21:39;100095.06;;;11.51;73.49
36254;BME280;22291;52.250;21.228;2022-09-09T00:24:27;100092.67;;;11.50;73.42
36254;BME280;22291;52.250;21.228;2022-09-09T00:27:07;100087.98;;;11.44;73.26
36254;BME280;22291;52.250;21.228;2022-09-09T00:29:49;100083.67;;;11.43;73.82
36254;BME280;22291;52.250;21.228;2022-09-09T00:32:24;100084.30;;;11.40;73.86
36254;BME280;22291;52.250;21.228;2022-09-09T00:35:00;100087.58;;;11.39;74.40
36254;BME280;22291;52.250;21.228;2022-09-09T00:37:29;100075.45;;;11.37;74.35
36254;BME280;22291;52.250;21.228;2022-09-09T00:40:16;100077.13;;;11.35;74.58
36254;BME280;22291;52.250;21.228;2022-09-09T00:42:44;100071.97;;;11.36;74.92
36254;BME280;22291;52.250;21.228;2022-09-09T00:48:11;100068.47;;;11.36;75.42
36254;BME280;22291;52.250;21.228;2022-09-09T00:50:59;100067.66;;;11.35;75.80
36254;BME280;22291;52.250;21.228;2022-09-09T00:56:27;100068.06;;;11.31;76.08
36254;BME280;22291;52.250;21.228;2022-09-09T00:59:21;100066.46;;;11.30;76.02
36254;BME280;22291;52.250;21.228;2022-09-09T01:01:53;100067.28;;;11.31;76.27
36254;BME280;22291;52.250;21.228;2022-09-09T01:04:27;100058.34;;;11.30;76.74
36254;BME280;22291;52.250;21.228;2022-09-09T01:07:16;100059.22;;;11.28;76.56
36254;BME280;22291;52.250;21.228;2022-09-09T01:09:54;100060.83;;;11.29;76.71
36254;BME280;22291;52.250;21.228;2022-09-09T01:12:25;100063.53;;;11.29;77.08
36254;BME280;22291;52.250;21.228;2022-09-09T01:15:14;100064.63;;;11.28;77.72
36254;BME280;22291;52.250;21.228;2022-09-09T01:17:58;100062.56;;;11.25;77.41
36254;BME280;22291;52.250;21.228;2022-09-09T01:20:44;100061.77;;;11.25;78.22
36254;BME280;22291;52.250;21.228;2022-09-09T01:26:33;100061.46;;;11.17;78.39
36254;BME280;22291;52.250;21.228;2022-09-09T01:29:01;100060.58;;;11.19;78.44
36254;BME280;22291;52.250;21.228;2022-09-09T01:31:31;100063.85;;;11.19;78.33
36254;BME280;22291;52.250;21.228;2022-09-09T01:34:04;100053.81;;;11.19;78.60
36254;BME280;22291;52.250;21.228;2022-09-09T01:36:42;100061.05;;;11.21;78.86
36254;BME280;22291;52.250;21.228;2022-09-09T01:39:07;100059.70;;;11.21;78.84
36254;BME280;22291;52.250;21.228;2022-09-09T01:41:33;100064.01;;;11.23;78.70
36254;BME280;22291;52.250;21.228;2022-09-09T01:43:59;100060.17;;;11.24;78.79
36254;BME280;22291;52.250;21.228;2022-09-09T01:46:27;100059.38;;;11.23;79.18
36254;BME280;22291;52.250;21.228;2022-09-09T01:48:55;100057.71;;;11.25;79.35
36254;BME280;22291;52.250;21.228;2022-09-09T01:51:23;100050.06;;;11.27;80.19
36254;BME280;22291;52.250;21.228;2022-09-09T01:53:50;100054.44;;;11.25;79.33
36254;BME280;22291;52.250;21.228;2022-09-09T01:56:34;100050.94;;;11.25;79.85
36254;BME280;22291;52.250;21.228;2022-09-09T01:59:17;100058.02;;;11.23;79.49
36254;BME280;22291;52.250;21.228;2022-09-09T02:04:45;100050.94;;;11.25;79.81
36254;BME280;22291;52.250;21.228;2022-09-09T02:07:34;100053.33;;;11.26;79.91
36254;BME280;22291;52.250;21.228;2022-09-09T02:13:13;100050.53;;;11.29;80.42
36254;BME280;22291;52.250;21.228;2022-09-09T02:15:47;100052.45;;;11.28;80.42
36254;BME280;22291;52.250;21.228;2022-09-09T02:18:18;100049.17;;;11.29;80.55
36254;BME280;22291;52.250;21.228;2022-09-09T02:20:47;100053.80;;;11.28;80.43
36254;BME280;22291;52.250;21.228;2022-09-09T02:23:14;100055.88;;;11.31;80.76
36254;BME280;22291;52.250;21.228;2022-09-09T02:25:41;100046.41;;;11.31;80.82
36254;BME280;22291;52.250;21.228;2022-09-09T02:28:10;100046.87;;;11.33;80.76
36254;BME280;22291;52.250;21.228;2022-09-09T02:30:40;100047.91;;;11.35;81.01
36254;BME280;22291;52.250;21.228;2022-09-09T02:33:08;100046.23;;;11.36;81.05
36254;BME280;22291;52.250;21.228;2022-09-09T02:35:37;100049.42;;;11.38;80.99
36254;BME280;22291;52.250;21.228;2022-09-09T02:38:08;100046.39;;;11.40;81.04
36254;BME280;22291;52.250;21.228;2022-09-09T02:40:35;100043.12;;;11.40;81.01
36254;BME280;22291;52.250;21.228;2022-09-09T02:43:02;100050.39;;;11.43;81.49
36254;BME280;22291;52.250;21.228;2022-09-09T02:45:36;100057.80;;;11.39;81.12
36254;BME280;22291;52.250;21.228;2022-09-09T02:50:54;100055.23;;;11.43;81.50
36254;BME280;22291;52.250;21.228;2022-09-09T02:56:14;100057.63;;;11.45;81.64
36254;BME280;22291;52.250;21.228;2022-09-09T02:58:41;100051.64;;;11.45;81.71
36254;BME280;22291;52.250;21.228;2022-09-09T03:01:08;100051.64;;;11.45;81.85
36254;BME280;22291;52.250;21.228;2022-09-09T03:03:35;100053.47;;;11.47;82.10
36254;BME280;22291;52.250;21.228;2022-09-09T03:06:01;100056.17;;;11.47;81.84
36254;BME280;22291;52.250;21.228;2022-09-09T03:08:27;100055.86;;;11.49;81.85
36254;BME280;22291;52.250;21.228;2022-09-09T03:10:54;100053.97;;;11.49;82.03
36254;BME280;22291;52.250;21.228;2022-09-09T03:13:21;100057.93;;;11.52;82.05
36254;BME280;22291;52.250;21.228;2022-09-09T03:15:48;100056.26;;;11.53;82.04
36254;BME280;22291;52.250;21.228;2022-09-09T03:18:14;100054.02;;;11.55;82.50
36254;BME280;22291;52.250;21.228;2022-09-09T03:20:41;100055.94;;;11.55;81.98
36254;BME280;22291;52.250;21.228;2022-09-09T03:23:08;100052.09;;;11.56;82.16
36254;BME280;22291;52.250;21.228;2022-09-09T03:25:34;100050.99;;;11.57;82.16
36254;BME280;22291;52.250;21.228;2022-09-09T03:28:01;100048.03;;;11.56;82.34
36254;BME280;22291;52.250;21.228;2022-09-09T03:30:28;100048.28;;;11.57;82.24
36254;BME280;22291;52.250;21.228;2022-09-09T03:32:54;100048.75;;;11.59;82.37
36254;BME280;22291;52.250;21.228;2022-09-09T03:35:22;100045.97;;;11.62;82.37
36254;BME280;22291;52.250;21.228;2022-09-09T03:37:49;100050.83;;;11.62;82.38
36254;BME280;22291;52.250;21.228;2022-09-09T03:40:15;100047.23;;;11.64;82.40
36254;BME280;22291;52.250;21.228;2022-09-09T03:42:41;100043.98;;;11.65;82.48
36254;BME280;22291;52.250;21.228;2022-09-09T03:45:09;100046.69;;;11.65;82.32
36254;BME280;22291;52.250;21.228;2022-09-09T03:47:36;100046.02;;;11.68;82.64
36254;BME280;22291;52.250;21.228;2022-09-09T03:50:05;100037.83;;;11.70;82.68
36254;BME280;22291;52.250;21.228;2022-09-09T03:52:38;100036.47;;;11.70;82.74
36254;BME280;22291;52.250;21.228;2022-09-09T03:55:08;100031.05;;;11.70;82.85
36254;BME280;22291;52.250;21.228;2022-09-09T03:57:35;100030.73;;;11.72;83.08
36254;BME280;22291;52.250;21.228;2022-09-09T04:00:06;100038.39;;;11.70;82.87
36254;BME280;22291;52.250;21.228;2022-09-09T04:02:33;100035.19;;;11.68;82.83
36254;BME280;22291;52.250;21.228;2022-09-09T04:04:59;100035.11;;;11.70;83.01
36254;BME280;22291;52.250;21.228;2022-09-09T04:07:26;100035.36;;;11.71;83.04
36254;BME280;22291;52.250;21.228;2022-09-09T04:09:54;100042.14;;;11.71;83.11
36254;BME280;22291;52.250;21.228;2022-09-09T04:12:20;100050.73;;;11.73;83.27
36254;BME280;22291;52.250;21.228;2022-09-09T04:14:46;100048.02;;;11.73;83.32
36254;BME280;22291;52.250;21.228;2022-09-09T04:17:12;100052.09;;;11.73;83.27
36254;BME280;22291;52.250;21.228;2022-09-09T04:19:38;100054.23;;;11.74;83.29
36254;BME280;22291;52.250;21.228;2022-09-09T04:22:04;100052.80;;;11.76;83.33
36254;BME280;22291;52.250;21.228;2022-09-09T04:24:31;100054.48;;;11.75;83.23
36254;BME280;22291;52.250;21.228;2022-09-09T04:26:57;100054.70;;;11.76;83.47
36254;BME280;22291;52.250;21.228;2022-09-09T04:29:23;100058.22;;;11.76;83.49
36254;BME280;22291;52.250;21.228;2022-09-09T04:31:49;100056.05;;;11.76;83.51
36254;BME280;22291;52.250;21.228;2022-09-09T04:34:15;100051.98;;;11.76;83.53
36254;BME280;22291;52.250;21.228;2022-09-09T04:36:42;100055.16;;;11.78;83.60
36254;BME280;22291;52.250;21.228;2022-09-09T04:39:08;100056.20;;;11.80;83.79
36254;BME280;22291;52.250;21.228;2022-09-09T04:41:34;100051.96;;;11.85;83.94
36254;BME280;22291;52.250;21.228;2022-09-09T04:44:00;100053.64;;;11.83;83.85
36254;BME280;22291;52.250;21.228;2022-09-09T04:46:27;100048.14;;;11.86;83.91
36254;BME280;22291;52.250;21.228;2022-09-09T04:48:53;100044.87;;;11.86;84.22
36254;BME280;22291;52.250;21.228;2022-09-09T04:51:19;100047.25;;;11.88;83.79
36254;BME280;22291;52.250;21.228;2022-09-09T04:53:45;100051.56;;;11.89;83.99
36254;BME280;22291;52.250;21.228;2022-09-09T04:56:15;100051.74;;;11.92;84.08
36254;BME280;22291;52.250;21.228;2022-09-09T04:58:43;100056.59;;;11.93;84.02
36254;BME280;22291;52.250;21.228;2022-09-09T05:01:16;100057.37;;;11.93;84.07
36254;BME280;22291;52.250;21.228;2022-09-09T05:03:44;100058.42;;;11.95;84.05
36254;BME280;22291;52.250;21.228;2022-09-09T05:06:13;100059.77;;;11.95;84.15
36254;BME280;22291;52.250;21.228;2022-09-09T05:08:41;100067.27;;;11.98;84.14
36254;BME280;22291;52.250;21.228;2022-09-09T05:11:20;100060.73;;;11.99;84.38
36254;BME280;22291;52.250;21.228;2022-09-09T05:13:54;100061.77;;;12.01;84.41
36254;BME280;22291;52.250;21.228;2022-09-09T05:16:21;100062.80;;;12.02;84.46
36254;BME280;22291;52.250;21.228;2022-09-09T05:18:48;100064.63;;;12.04;84.36
36254;BME280;22291;52.250;21.228;2022-09-09T05:21:18;100067.80;;;12.06;84.46
36254;BME280;22291;52.250;21.228;2022-09-09T05:23:46;100067.16;;;12.09;84.47
36254;BME280;22291;52.250;21.228;2022-09-09T05:26:15;100076.08;;;12.10;84.59
36254;BME280;22291;52.250;21.228;2022-09-09T05:28:43;100069.55;;;12.11;84.32
36254;BME280;22291;52.250;21.228;2022-09-09T05:31:11;100079.82;;;12.11;84.35
36254;BME280;22291;52.250;21.228;2022-09-09T05:33:40;100075.68;;;12.14;84.46
36254;BME280;22291;52.250;21.228;2022-09-09T05:36:10;100070.72;;;12.16;84.31
36254;BME280;22291;52.250;21.228;2022-09-09T05:38:41;100076.15;;;12.16;84.45
36254;BME280;22291;52.250;21.228;2022-09-09T05:41:08;100078.22;;;12.19;84.60
36254;BME280;22291;52.250;21.228;2022-09-09T05:43:37;100080.82;;;12.22;84.58
36254;BME280;22291;52.250;21.228;2022-09-09T05:46:09;100082.42;;;12.23;84.59
36254;BME280;22291;52.250;21.228;2022-09-09T05:48:41;100085.28;;;12.26;84.65
36254;BME280;22291;52.250;21.228;2022-09-09T05:51:11;100085.03;;;12.25;84.38
36254;BME280;22291;52.250;21.228;2022-09-09T05:53:41;100081.75;;;12.26;84.53
36254;BME280;22291;52.250;21.228;2022-09-09T05:56:16;100079.04;;;12.26;84.48
36254;BME280;22291;52.250;21.228;2022-09-09T05:58:49;100082.10;;;12.24;84.51
36254;BME280;22291;52.250;21.228;2022-09-09T06:01:17;100085.50;;;12.27;84.60
36254;BME280;22291;52.250;21.228;2022-09-09T06:03:47;100084.14;;;12.27;84.72
36254;BME280;22291;52.250;21.228;2022-09-09T06:06:18;100084.31;;;12.31;84.89
36254;BME280;22291;52.250;21.228;2022-09-09T06:08:55;100085.67;;;12.31;84.83
36254;BME280;22291;52.250;21.228;2022-09-09T06:11:26;100084.20;;;12.33;84.87
36254;BME280;22291;52.250;21.228;2022-09-09T06:13:53;100082.53;;;12.35;84.99
36254;BME280;22291;52.250;21.228;2022-09-09T06:16:22;100095.52;;;12.36;84.79
36254;BME280;22291;52.250;21.228;2022-09-09T06:18:51;100098.34;;;12.33;84.81
36254;BME280;22291;52.250;21.228;2022-09-09T06:21:30;100100.41;;;12.36;85.19
36254;BME280;22291;52.250;21.228;2022-09-09T06:24:02;100098.80;;;12.35;85.11
36254;BME280;22291;52.250;21.228;2022-09-09T06:26:31;100100.94;;;12.36;85.19
36254;BME280;22291;52.250;21.228;2022-09-09T06:28:59;100099.91;;;12.34;85.17
36254;BME280;22291;52.250;21.228;2022-09-09T06:31:29;100104.55;;;12.33;85.21
36254;BME280;22291;52.250;21.228;2022-09-09T06:33:58;100102.63;;;12.34;85.30
36254;BME280;22291;52.250;21.228;2022-09-09T06:36:26;100104.80;;;12.35;85.45
36254;BME280;22291;52.250;21.228;2022-09-09T06:38:56;100105.02;;;12.36;85.34
36254;BME280;22291;52.250;21.228;2022-09-09T06:41:24;100103.33;;;12.37;85.46
36254;BME280;22291;52.250;21.228;2022-09-09T06:43:52;100111.94;;;12.39;85.67
36254;BME280;22291;52.250;21.228;2022-09-09T06:46:21;100112.75;;;12.40;85.69
36254;BME280;22291;52.250;21.228;2022-09-09T06:48:54;100119.20;;;12.41;85.61
36254;BME280;22291;52.250;21.228;2022-09-09T06:51:23;100116.96;;;12.43;85.83
36254;BME280;22291;52.250;21.228;2022-09-09T06:53:54;100122.28;;;12.46;86.04
36254;BME280;22291;52.250;21.228;2022-09-09T06:56:29;100118.14;;;12.48;86.12
36254;BME280;22291;52.250;21.228;2022-09-09T06:59:01;100116.78;;;12.48;85.98
36254;BME280;22291;52.250;21.228;2022-09-09T07:01:31;100116.20;;;12.49;85.90
36254;BME280;22291;52.250;21.228;2022-09-09T07:03:59;100123.23;;;12.50;86.11
36254;BME280;22291;52.250;21.228;2022-09-09T07:06:30;100123.38;;;12.54;86.63
36254;BME280;22291;52.250;21.228;2022-09-09T07:09:00;100126.09;;;12.54;86.25
36254;BME280;22291;52.250;21.228;2022-09-09T07:11:32;100126.63;;;12.53;86.31
36254;BME280;22291;52.250;21.228;2022-09-09T07:14:00;100129.27;;;12.56;86.46
36254;BME280;22291;52.250;21.228;2022-09-09T07:16:27;100125.34;;;12.59;86.42
36254;BME280;22291;52.250;21.228;2022-09-09T07:18:55;100125.13;;;12.58;86.10
36254;BME280;22291;52.250;21.228;2022-09-09T07:21:24;100123.06;;;12.55;86.10
36254;BME280;22291;52.250;21.228;2022-09-09T07:23:52;100129.41;;;12.59;86.38
36254;BME280;22291;52.250;21.228;2022-09-09T07:26:22;100126.05;;;12.62;86.71
36254;BME280;22291;52.250;21.228;2022-09-09T07:28:49;100127.22;;;12.67;86.94
36254;BME280;22291;52.250;21.228;2022-09-09T07:31:18;100137.00;;;12.75;87.20
36254;BME280;22291;52.250;21.228;2022-09-09T07:33:47;100143.21;;;12.75;86.57
36254;BME280;22291;52.250;21.228;2022-09-09T07:36:17;100147.06;;;12.74;86.34
36254;BME280;22291;52.250;21.228;2022-09-09T07:38:50;100150.10;;;12.73;86.32
36254;BME280;22291;52.250;21.228;2022-09-09T07:41:25;100146.03;;;12.73;86.24
36254;BME280;22291;52.250;21.228;2022-09-09T07:43:51;100151.35;;;12.75;86.61
36254;BME280;22291;52.250;21.228;2022-09-09T07:46:24;100153.28;;;12.75;86.55
36254;BME280;22291;52.250;21.228;2022-09-09T07:48:56;100144.56;;;12.75;86.64
36254;BME280;22291;52.250;21.228;2022-09-09T07:51:29;100154.88;;;12.76;86.87
36254;BME280;22291;52.250;21.228;2022-09-09T07:54:00;100152.95;;;12.76;86.88
36254;BME280;22291;52.250;21.228;2022-09-09T07:56:30;100151.27;;;12.78;86.84
36254;BME280;22291;52.250;21.228;2022-09-09T07:58:58;100153.88;;;12.80;86.87
36254;BME280;22291;52.250;21.228;2022-09-09T08:04:02;100161.63;;;12.84;86.88
36254;BME280;22291;52.250;21.228;2022-09-09T08:06:33;100160.27;;;12.84;86.86
36254;BME280;22291;52.250;21.228;2022-09-09T08:09:05;100166.16;;;12.86;87.01
36254;BME280;22291;52.250;21.228;2022-09-09T08:11:32;100172.94;;;12.86;86.61
36254;BME280;22291;52.250;21.228;2022-09-09T08:13:59;100174.30;;;12.86;86.65
36254;BME280;22291;52.250;21.228;2022-09-09T08:16:28;100178.38;;;12.86;86.54
36254;BME280;22291;52.250;21.228;2022-09-09T08:18:57;100182.55;;;12.84;86.37
36254;BME280;22291;52.250;21.228;2022-09-09T08:21:27;100173.13;;;12.81;86.46
36254;BME280;22291;52.250;21.228;2022-09-09T08:23:56;100175.05;;;12.81;86.64
36254;BME280;22291;52.250;21.228;2022-09-09T08:26:27;100175.52;;;12.83;86.81
36254;BME280;22291;52.250;21.228;2022-09-09T08:28:58;100169.77;;;12.84;87.24
36254;BME280;22291;52.250;21.228;2022-09-09T08:31:34;100173.65;;;12.89;87.48
36254;BME280;22291;52.250;21.228;2022-09-09T08:34:04;100179.22;;;12.93;87.57
36254;BME280;22291;52.250;21.228;2022-09-09T08:36:41;100180.00;;;12.94;87.40
36254;BME280;22291;52.250;21.228;2022-09-09T08:39:10;100177.42;;;12.97;87.25
36254;BME280;22291;52.250;21.228;2022-09-09T08:53:03;100197.58;;;12.96;87.10
36254;BME280;22291;52.250;21.228;2022-09-09T08:55:47;100190.78;;;12.96;87.08
36254;BME280;22291;52.250;21.228;2022-09-09T08:58:33;100191.82;;;12.98;87.48
36254;BME280;22291;52.250;21.228;2022-09-09T09:12:01;100200.70;;;13.07;88.08
36254;BME280;22291;52.250;21.228;2022-09-09T09:14:30;100201.98;;;13.10;87.87
36254;BME280;22291;52.250;21.228;2022-09-09T09:19:33;100202.91;;;13.14;87.79
36254;BME280;22291;52.250;21.228;2022-09-09T09:22:19;100210.41;;;13.17;87.92
36254;BME280;22291;52.250;21.228;2022-09-09T09:24:56;100209.51;;;13.19;87.98
36254;BME280;22291;52.250;21.228;2022-09-09T09:30:48;100217.14;;;13.25;87.90
36254;BME280;22291;52.250;21.228;2022-09-09T09:35:57;100218.50;;;13.25;87.64
36254;BME280;22291;52.250;21.228;2022-09-09T09:38:27;100214.17;;;13.24;87.47
36254;BME280;22291;52.250;21.228;2022-09-09T09:40:57;100218.95;;;13.27;88.01
36254;BME280;22291;52.250;21.228;2022-09-09T09:43:31;100220.97;;;13.33;87.92
36254;BME280;22291;52.250;21.228;2022-09-09T09:46:03;100223.12;;;13.34;87.83
36254;BME280;22291;52.250;21.228;2022-09-09T09:48:30;100225.72;;;13.36;88.00
36254;BME280;22291;52.250;21.228;2022-09-09T09:51:10;100226.54;;;13.37;87.97
36254;BME280;22291;52.250;21.228;2022-09-09T09:53:40;100232.44;;;13.39;87.94
36254;BME280;22291;52.250;21.228;2022-09-09T09:56:09;100234.25;;;13.41;87.86
36254;BME280;22291;52.250;21.228;2022-09-09T10:04:01;100227.00;;;13.39;87.70
36254;BME280;22291;52.250;21.228;2022-09-09T10:06:36;100224.98;;;13.42;87.83
36254;BME280;22291;52.250;21.228;2022-09-09T10:09:23;100228.95;;;13.44;88.00
36254;BME280;22291;52.250;21.228;2022-09-09T10:12:00;100229.33;;;13.49;88.10
36254;BME280;22291;52.250;21.228;2022-09-09T10:20:15;100225.19;;;13.58;88.56
36254;BME280;22291;52.250;21.228;2022-09-09T10:22:54;100225.23;;;13.64;88.71
36254;BME280;22291;52.250;21.228;2022-09-09T10:25:36;100224.01;;;13.68;88.45
36254;BME280;22291;52.250;21.228;2022-09-09T10:31:22;100242.39;;;13.77;88.25
36254;BME280;22291;52.250;21.228;2022-09-09T10:33:58;100248.65;;;13.77;87.90
36254;BME280;22291;52.250;21.228;2022-09-09T10:36:25;100246.72;;;13.78;87.91
36254;BME280;22291;52.250;21.228;2022-09-09T10:39:39;100244.00;;;13.78;87.77
36254;BME280;22291;52.250;21.228;2022-09-09T10:42:03;100249.44;;;13.78;87.63
36254;BME280;22291;52.250;21.228;2022-09-09T10:47:40;100258.05;;;13.80;87.62
36254;BME280;22291;52.250;21.228;2022-09-09T10:50:40;100257.80;;;13.79;87.52
36254;BME280;22291;52.250;21.228;2022-09-09T10:56:07;100265.50;;;13.77;87.60
36254;BME280;22291;52.250;21.228;2022-09-09T10:58:39;100272.08;;;13.76;87.59
36254;BME280;22291;52.250;21.228;2022-09-09T11:01:23;100275.67;;;13.74;87.46
36254;BME280;22291;52.250;21.228;2022-09-09T11:07:06;100287.45;;;13.72;87.53
36254;BME280;22291;52.250;21.228;2022-09-09T11:09:47;100287.23;;;13.71;87.42
36254;BME280;22291;52.250;21.228;2022-09-09T11:12:18;100290.73;;;13.71;87.79
36254;BME280;22291;52.250;21.228;2022-09-09T11:15:08;100296.74;;;13.71;87.68
36254;BME280;22291;52.250;21.228;2022-09-09T11:17:50;100303.75;;;13.72;87.69
36254;BME280;22291;52.250;21.228;2022-09-09T11:20:23;100300.14;;;13.74;88.05
36254;BME280;22291;52.250;21.228;2022-09-09T11:22:58;100311.58;;;13.73;87.65
36254;BME280;22291;52.250;21.228;2022-09-09T11:25:32;100300.38;;;13.75;87.96
36254;BME280;22291;52.250;21.228;2022-09-09T11:28:19;100304.02;;;13.79;88.07
36254;BME280;22291;52.250;21.228;2022-09-09T11:30:58;100295.67;;;13.84;88.55
36254;BME280;22291;52.250;21.228;2022-09-09T11:42:46;100309.23;;;13.93;88.03
36254;BME280;22291;52.250;21.228;2022-09-09T11:45:20;100309.11;;;13.95;87.89
36254;BME280;22291;52.250;21.228;2022-09-09T11:47:58;100313.56;;;14.00;88.21
36254;BME280;22291;52.250;21.228;2022-09-09T11:50:33;100312.34;;;14.04;88.36
36254;BME280;22291;52.250;21.228;2022-09-09T11:56:08;100318.15;;;14.08;87.92
36254;BME280;22291;52.250;21.228;2022-09-09T11:58:44;100316.22;;;14.09;87.74
36254;BME280;22291;52.250;21.228;2022-09-09T12:04:14;100303.32;;;14.12;87.74
36254;BME280;22291;52.250;21.228;2022-09-09T12:09:52;100302.29;;;14.10;87.38
36254;BME280;22291;52.250;21.228;2022-09-09T12:12:33;100307.94;;;14.11;87.58
36254;BME280;22291;52.250;21.228;2022-09-09T12:23:25;100316.93;;;14.18;87.42
36254;BME280;22291;52.250;21.228;2022-09-09T12:40:04;100321.38;;;14.23;87.00
36254;BME280;22291;52.250;21.228;2022-09-09T12:42:32;100326.73;;;14.25;87.06
36254;BME280;22291;52.250;21.228;2022-09-09T12:45:01;100323.12;;;14.27;87.03
36254;BME280;22291;52.250;21.228;2022-09-09T12:50:24;100321.63;;;14.24;86.49
36254;BME280;22291;52.250;21.228;2022-09-09T12:52:58;100316.72;;;14.17;86.39
36254;BME280;22291;52.250;21.228;2022-09-09T12:55:30;100319.66;;;14.18;86.87
36254;BME280;22291;52.250;21.228;2022-09-09T12:58:00;100314.00;;;14.17;86.85
36254;BME280;22291;52.250;21.228;2022-09-09T13:00:29;100310.46;;;14.16;86.85
36254;BME280;22291;52.250;21.228;2022-09-09T13:03:03;100295.75;;;14.17;87.12
36254;BME280;22291;52.250;21.228;2022-09-09T13:05:34;100294.18;;;14.23;87.40
36254;BME280;22291;52.250;21.228;2022-09-09T13:08:06;100293.19;;;14.27;87.74
36254;BME280;22291;52.250;21.228;2022-09-09T13:10:41;100291.50;;;14.29;87.34
36254;BME280;22291;52.250;21.228;2022-09-09T13:13:38;100304.77;;;14.30;87.59
36254;BME280;22291;52.250;21.228;2022-09-09T13:16:25;100302.84;;;14.31;87.44
36254;BME280;22291;52.250;21.228;2022-09-09T13:18:53;100302.63;;;14.36;87.68
36254;BME280;22291;52.250;21.228;2022-09-09T13:21:33;100301.72;;;14.38;87.57
36254;BME280;22291;52.250;21.228;2022-09-09T13:24:01;100307.95;;;14.38;87.25
36254;BME280;22291;52.250;21.228;2022-09-09T13:26:29;100311.03;;;14.37;87.15
36254;BME280;22291;52.250;21.228;2022-09-09T13:29:07;100305.23;;;14.38;87.12
36254;BME280;22291;52.250;21.228;2022-09-09T13:31:44;100293.35;;;14.37;87.04
36254;BME280;22291;52.250;21.228;2022-09-09T13:34:28;100291.87;;;14.39;87.04
36254;BME280;22291;52.250;21.228;2022-09-09T13:37:01;100294.92;;;14.38;87.08
36254;BME280;22291;52.250;21.228;2022-09-09T13:39:33;100295.25;;;14.36;87.36
36254;BME280;22291;52.250;21.228;2022-09-09T13:42:00;100302.05;;;14.36;87.57
36254;BME280;22291;52.250;21.228;2022-09-09T13:44:31;100291.75;;;14.36;87.34
36254;BME280;22291;52.250;21.228;2022-09-09T13:47:05;100287.42;;;14.35;87.24
36254;BME280;22291;52.250;21.228;2022-09-09T13:49:34;100285.73;;;14.36;87.10
36254;BME280;22291;52.250;21.228;2022-09-09T13:52:09;100285.19;;;14.37;87.38
36254;BME280;22291;52.250;21.228;2022-09-09T13:54:37;100281.31;;;14.38;87.34
36254;BME280;22291;52.250;21.228;2022-09-09T13:57:04;100288.13;;;14.38;87.07
36254;BME280;22291;52.250;21.228;2022-09-09T13:59:31;100292.53;;;14.36;86.87
36254;BME280;22291;52.250;21.228;2022-09-09T14:01:58;100292.66;;;14.34;86.98
36254;BME280;22291;52.250;21.228;2022-09-09T14:04:25;100293.31;;;14.31;86.92
36254;BME280;22291;52.250;21.228;2022-09-09T14:06:51;100297.97;;;14.30;86.93
36254;BME280;22291;52.250;21.228;2022-09-09T14:09:18;100299.99;;;14.27;86.96
36254;BME280;22291;52.250;21.228;2022-09-09T14:11:45;100298.95;;;14.26;86.86
36254;BME280;22291;52.250;21.228;2022-09-09T14:14:11;100303.25;;;14.27;87.16
36254;BME280;22291;52.250;21.228;2022-09-09T14:16:37;100304.28;;;14.28;87.42
36254;BME280;22291;52.250;21.228;2022-09-09T14:19:04;100299.55;;;14.31;87.55
36254;BME280;22291;52.250;21.228;2022-09-09T14:21:30;100305.23;;;14.32;87.50
36254;BME280;22291;52.250;21.228;2022-09-09T14:23:57;100309.77;;;14.34;87.44
36254;BME280;22291;52.250;21.228;2022-09-09T14:26:24;100314.96;;;14.33;87.36
36254;BME280;22291;52.250;21.228;2022-09-09T14:28:51;100319.38;;;14.32;87.25
36254;BME280;22291;52.250;21.228;2022-09-09T14:31:18;100312.94;;;14.30;87.22
36254;BME280;22291;52.250;21.228;2022-09-09T14:33:45;100318.59;;;14.31;87.15
36254;BME280;22291;52.250;21.228;2022-09-09T14:36:11;100315.16;;;14.28;87.23
36254;BME280;22291;52.250;21.228;2022-09-09T14:38:39;100314.50;;;14.25;87.12
36254;BME280;22291;52.250;21.228;2022-09-09T14:41:06;100322.75;;;14.23;87.21
36254;BME280;22291;52.250;21.228;2022-09-09T14:43:33;100314.83;;;14.24;87.58
36254;BME280;22291;52.250;21.228;2022-09-09T14:46:06;100325.14;;;14.24;87.53
36254;BME280;22291;52.250;21.228;2022-09-09T14:48:34;100323.45;;;14.26;87.58
36254;BME280;22291;52.250;21.228;2022-09-09T14:51:10;100315.28;;;14.26;87.58
36254;BME280;22291;52.250;21.228;2022-09-09T14:53:34;100311.98;;;14.26;87.69
36254;BME280;22291;52.250;21.228;2022-09-09T14:56:07;100304.53;;;14.29;87.72
36254;BME280;22291;52.250;21.228;2022-09-09T14:58:36;100302.51;;;14.32;87.97
36254;BME280;22291;52.250;21.228;2022-09-09T15:01:11;100305.02;;;14.37;87.90
36254;BME280;22291;52.250;21.228;2022-09-09T15:03:40;100313.06;;;14.40;88.01
36254;BME280;22291;52.250;21.228;2022-09-09T15:06:09;100320.81;;;14.44;87.86
36254;BME280;22291;52.250;21.228;2022-09-09T15:08:40;100323.28;;;14.43;87.75
36254;BME280;22291;52.250;21.228;2022-09-09T15:11:07;100321.47;;;14.41;87.44
36254;BME280;22291;52.250;21.228;2022-09-09T15:13:35;100318.42;;;14.43;87.57
36254;BME280;22291;52.250;21.228;2022-09-09T15:16:14;100318.17;;;14.42;87.38